createdAt,value
2023-11-26T00:00:02.086Z,98177.69
2023-11-26T00:05:05.501Z,98177.41
2023-11-26T00:10:10.560Z,98172.91
2023-11-26T00:15:15.871Z,98177.31
2023-11-26T00:20:18.806Z,98184.28
2023-11-26T00:25:21.795Z,98189.38
2023-11-26T00:30:26.125Z,98186.47
2023-11-26T00:35:31.087Z,98186.19
2023-11-26T00:40:34.014Z,98196.47
2023-11-26T00:45:38.700Z,98201.16
2023-11-26T00:50:41.602Z,98197.69
2023-11-26T00:55:45.392Z,98210.81
2023-11-26T01:00:50.195Z,98202.75
2023-11-26T01:05:54.234Z,98201.16
2023-11-26T01:10:57.159Z,98204.72
2023-11-26T01:16:01.533Z,98217.44
2023-11-26T01:21:06.099Z,98227.88
2023-11-26T01:26:09.151Z,98232.19
2023-11-26T01:31:13.472Z,98235.69
2023-11-26T01:36:16.441Z,98245.25
2023-11-26T01:41:19.647Z,98260.59
2023-11-26T01:46:25.159Z,98249.06
2023-11-26T01:51:32.057Z,98246.69
2023-11-26T01:56:36.178Z,98237.63
2023-11-26T02:01:42.900Z,98238.22
2023-11-26T02:06:46.630Z,98245.50
2023-11-26T02:11:50.065Z,98244.72
2023-11-26T02:16:55.246Z,98248.88
2023-11-26T02:21:58.938Z,98235.91
2023-11-26T02:27:03.281Z,98244.06
2023-11-26T02:32:07.994Z,98240.59
2023-11-26T02:37:11.644Z,98244.91
2023-11-26T02:42:16.218Z,98255.34
2023-11-26T02:47:19.408Z,98254.31
2023-11-26T02:52:22.431Z,98252.72
2023-11-26T02:57:26.736Z,98249.81
2023-11-26T03:02:36.243Z,98254.16
2023-11-26T03:07:39.219Z,98254.25
2023-11-26T03:13:08.424Z,98258.41
2023-11-26T03:18:14.060Z,98262.56
2023-11-26T03:23:17.352Z,98271.25
2023-11-26T03:28:22.024Z,98272.91
2023-11-26T03:33:26.309Z,98274.34
2023-11-26T03:38:29.599Z,98279.44
2023-11-26T03:43:34.773Z,98273.31
2023-11-26T03:48:40.532Z,98271.88
2023-11-26T03:53:44.029Z,98278.84
2023-11-26T03:58:48.303Z,98268.34
2023-11-26T04:03:51.248Z,98270.78
2023-11-26T04:08:55.224Z,98266.13
2023-11-26T04:14:00.440Z,98266.72
2023-11-26T04:19:03.861Z,98262.16
2023-11-26T04:24:08.829Z,98268.16
2023-11-26T04:29:13.160Z,98270.69
2023-11-26T04:34:17.078Z,98262.81
2023-11-26T04:39:20.372Z,98274.25
2023-11-26T04:44:24.669Z,98274.19
2023-11-26T04:49:27.920Z,98280.03
2023-11-26T04:54:32.388Z,98288.69
2023-11-26T04:59:37.547Z,98297.16
2023-11-26T05:04:41.364Z,98304.72
2023-11-26T05:09:44.517Z,98314.75
2023-11-26T05:14:48.776Z,98317.09
2023-11-26T05:19:51.757Z,98316.75
2023-11-26T05:24:54.692Z,98323.53
2023-11-26T05:29:59.502Z,98316.25
2023-11-26T05:35:09.859Z,98323.88
2023-11-26T05:40:16.344Z,98331.59
2023-11-26T05:45:20.621Z,98328.13
2023-11-26T05:50:24.185Z,98332.44
2023-11-26T05:55:27.081Z,98341.00
2023-11-26T06:00:32.189Z,98341.63
2023-11-26T06:05:35.911Z,98347.47
2023-11-26T06:10:38.850Z,98342.03
2023-11-26T06:15:43.603Z,98343.72
2023-11-26T06:20:46.537Z,98346.25
2023-11-26T06:25:49.428Z,98352.38
2023-11-26T06:30:54.034Z,98348.81
2023-11-26T06:35:57.430Z,98354.06
2023-11-26T06:41:01.313Z,98348.63
2023-11-26T06:46:06.673Z,98359.09
2023-11-26T06:51:11.709Z,98356.28
2023-11-26T06:56:15.022Z,98350.06
2023-11-26T07:01:19.343Z,98348.09
2023-11-26T07:06:22.683Z,98342.56
2023-11-26T07:11:25.946Z,98351.16
2023-11-26T07:16:32.008Z,98347.41
2023-11-26T07:21:41.609Z,98359.47
2023-11-26T07:26:44.526Z,98364.63
2023-11-26T07:31:49.701Z,98355.59
2023-11-26T07:36:53.332Z,98351.78
2023-11-26T07:41:57.139Z,98348.88
2023-11-26T07:47:03.616Z,98350.28
2023-11-26T07:52:07.116Z,98348.16
2023-11-26T07:57:10.277Z,98342.50
2023-11-26T08:02:14.845Z,98344.88
2023-11-26T08:07:19.313Z,98334.66
2023-11-26T08:12:24.544Z,98338.03
2023-11-26T08:17:30.702Z,98337.84
2023-11-26T08:22:35.992Z,98344.50
2023-11-26T08:27:39.081Z,98350.47
2023-11-26T08:32:46.059Z,98343.50
2023-11-26T08:37:49.377Z,98347.56
2023-11-26T08:42:55.099Z,98354.72
2023-11-26T08:48:00.109Z,98353.56
2023-11-26T08:53:07.111Z,98357.53
2023-11-26T08:58:10.335Z,98359.41
2023-11-26T09:03:14.876Z,98354.13
2023-11-26T09:08:18.563Z,98355.72
2023-11-26T09:13:21.463Z,98360.63
2023-11-26T09:18:27.015Z,98364.88
2023-11-26T09:23:31.103Z,98361.41
2023-11-26T09:28:35.391Z,98359.88
2023-11-26T09:33:40.367Z,98363.47
2023-11-26T09:38:43.378Z,98364.03
2023-11-26T09:43:46.628Z,98363.09
2023-11-26T09:48:53.350Z,98361.34
2023-11-26T09:53:56.276Z,98355.53
2023-11-26T09:59:00.225Z,98356.56
2023-11-26T10:04:06.200Z,98351.66
2023-11-26T10:09:18.664Z,98350.91
2023-11-26T10:14:23.831Z,98335.41
2023-11-26T10:19:29.192Z,98343.00
2023-11-26T10:24:32.668Z,98339.50
2023-11-26T10:29:44.192Z,98336.09
2023-11-26T10:34:57.271Z,98332.78
2023-11-26T10:40:00.903Z,98330.50
2023-11-26T10:45:06.329Z,98336.94
2023-11-26T10:50:13.043Z,98325.16
2023-11-26T10:55:20.559Z,98323.72
2023-11-26T11:00:26.544Z,98325.47
2023-11-26T11:05:35.587Z,98326.56
2023-11-26T11:10:49.285Z,98326.81
2023-11-26T11:15:53.020Z,98317.09
2023-11-26T11:21:06.379Z,98318.56
2023-11-26T11:26:12.762Z,98319.19
2023-11-26T11:31:16.747Z,98318.44
2023-11-26T11:36:51.561Z,98310.78
2023-11-26T11:42:10.968Z,98302.22
2023-11-26T11:47:35.564Z,98299.16
2023-11-26T11:52:41.544Z,98297.94
2023-11-26T11:57:46.688Z,98297.63
2023-11-26T12:02:51.213Z,98305.03
2023-11-26T12:07:57.665Z,98298.72
2023-11-26T12:13:02.416Z,98299.47
2023-11-26T12:18:05.703Z,98301.69
2023-11-26T12:23:10.263Z,98297.72
2023-11-26T12:28:14.355Z,98294.53
2023-11-26T12:33:18.322Z,98289.25
2023-11-26T12:38:27.014Z,98277.88
2023-11-26T12:43:45.747Z,98282.44
2023-11-26T12:48:51.184Z,98276.31
2023-11-26T12:53:56.187Z,98271.13
2023-11-26T12:59:01.741Z,98270.28
2023-11-26T13:04:06.314Z,98265.84
2023-11-26T13:09:10.771Z,98262.75
2023-11-26T13:14:21.657Z,98255.69
2023-11-26T13:19:25.137Z,98261.50
2023-11-26T13:24:28.425Z,98247.19
2023-11-26T13:29:34.891Z,98236.63
2023-11-26T13:34:38.358Z,98239.50
2023-11-26T13:39:44.285Z,98236.03
2023-11-26T13:44:48.976Z,98237.06
2023-11-26T13:49:52.544Z,98226.81
2023-11-26T13:54:56.097Z,98229.13
2023-11-26T14:00:01.493Z,98233.38
2023-11-26T14:05:11.450Z,98225.97
2023-11-26T14:10:17.861Z,98219.41
2023-11-26T14:15:22.884Z,98211.47
2023-11-26T14:20:26.626Z,98211.06
2023-11-26T14:25:30.306Z,98229.69
2023-11-26T14:30:36.343Z,98226.91
2023-11-26T14:35:40.044Z,98214.66
2023-11-26T14:40:43.451Z,98221.53
2023-11-26T14:45:48.152Z,98219.09
2023-11-26T14:50:51.852Z,98221.09
2023-11-26T14:55:55.748Z,98222.03
2023-11-26T15:01:01.533Z,98229.66
2023-11-26T15:06:05.721Z,98218.13
2023-11-26T15:11:09.204Z,98219.50
2023-11-26T15:16:14.213Z,98214.66
2023-11-26T15:21:18.961Z,98213.25
2023-11-26T15:26:23.360Z,98213.56
2023-11-26T15:31:29.192Z,98210.16
2023-11-26T15:36:32.815Z,98210.38
2023-11-26T15:41:37.174Z,98205.50
2023-11-26T15:46:42.052Z,98203.00
2023-11-26T15:51:47.074Z,98199.69
2023-11-26T15:56:53.972Z,98209.59
2023-11-26T16:02:01.870Z,98206.22
2023-11-26T16:07:08.846Z,98193.88
2023-11-26T16:12:14.070Z,98194.72
2023-11-26T16:17:27.158Z,98195.03
2023-11-26T16:22:37.446Z,98191.53
2023-11-26T16:27:40.707Z,98196.06
2023-11-26T16:32:46.570Z,98196.94
2023-11-26T16:37:50.178Z,98198.72
2023-11-26T16:42:53.426Z,98196.06
2023-11-26T16:47:58.371Z,98194.28
2023-11-26T16:53:01.684Z,98194.28
2023-11-26T16:58:05.023Z,98198.81
2023-11-26T17:03:10.824Z,98203.16
2023-11-26T17:08:14.131Z,98201.56
2023-11-26T17:13:18.611Z,98198.81
2023-11-26T17:18:24.652Z,98199.03
2023-11-26T17:23:28.704Z,98191.94
2023-11-26T17:28:33.643Z,98193.75
2023-11-26T17:33:39.310Z,98198.47
2023-11-26T17:38:42.977Z,98192.34
2023-11-26T17:43:47.347Z,98189.81
2023-11-26T17:48:53.169Z,98194.03
2023-11-26T17:53:57.135Z,98194.03
2023-11-26T17:59:01.927Z,98189.59
2023-11-26T18:04:08.457Z,98188.66
2023-11-26T18:09:12.672Z,98193.19
2023-11-26T18:14:16.792Z,98188.84
2023-11-26T18:19:23.755Z,98193.38
2023-11-26T18:24:28.478Z,98190.75
2023-11-26T18:29:31.784Z,98190.75
2023-11-26T18:34:37.082Z,98178.72
2023-11-26T18:39:41.855Z,98183.16
2023-11-26T18:44:45.332Z,98184.00
2023-11-26T18:49:50.191Z,98177.22
2023-11-26T18:54:54.361Z,98178.09
2023-11-26T18:59:58.152Z,98174.59
2023-11-26T19:05:02.824Z,98180.72
2023-11-26T19:10:08.520Z,98178.38
2023-11-26T19:15:13.018Z,98181.97
2023-11-26T19:20:18.047Z,98184.06
2023-11-26T19:25:21.550Z,98189.41
2023-11-26T19:30:24.614Z,98182.56
2023-11-26T19:35:30.037Z,98173.72
2023-11-26T19:40:34.375Z,98185.94
2023-11-26T19:45:38.581Z,98167.38
2023-11-26T19:50:43.782Z,98171.63
2023-11-26T19:55:47.297Z,98168.84
2023-11-26T20:00:51.180Z,98171.69
2023-11-26T20:05:55.711Z,98155.13
2023-11-26T20:10:59.229Z,98160.59
2023-11-26T20:16:02.612Z,98157.22
2023-11-26T20:21:09.253Z,98157.22
2023-11-26T20:26:19.848Z,98150.88
2023-11-26T20:31:24.056Z,98154.72
2023-11-26T20:36:29.669Z,98149.56
2023-11-26T20:41:33.203Z,98136.56
2023-11-26T20:46:37.095Z,98144.59
2023-11-26T20:51:42.745Z,98143.09
2023-11-26T20:56:46.366Z,98138.78
2023-11-26T21:01:49.790Z,98139.81
2023-11-26T21:06:55.140Z,98123.03
2023-11-26T21:11:58.596Z,98123.78
2023-11-26T21:17:01.981Z,98109.03
2023-11-26T21:22:06.796Z,98112.69
2023-11-26T21:27:10.462Z,98106.59
2023-11-26T21:32:14.897Z,98100.78
2023-11-26T21:37:19.692Z,98093.16
2023-11-26T21:42:22.650Z,98091.34
2023-11-26T21:47:25.774Z,98087.13
2023-11-26T21:52:30.135Z,98074.25
2023-11-26T21:57:33.072Z,98072.56
2023-11-26T22:02:36.178Z,98062.00
2023-11-26T22:07:40.676Z,98066.75
2023-11-26T22:12:43.612Z,98066.75
2023-11-26T22:17:46.571Z,98053.97
2023-11-26T22:22:51.084Z,98053.97
2023-11-26T22:27:54.017Z,98051.53
2023-11-26T22:32:57.049Z,98044.66
2023-11-26T22:38:01.326Z,98035.06
2023-11-26T22:43:04.287Z,98034.31
2023-11-26T22:48:07.754Z,98032.16
2023-11-26T22:53:12.947Z,98032.28
2023-11-26T22:58:16.082Z,98024.78
2023-11-26T23:03:19.170Z,98029.19
2023-11-26T23:08:23.797Z,98019.72
2023-11-26T23:13:28.936Z,98014.53
2023-11-26T23:18:35.329Z,98011.97
2023-11-26T23:23:49.137Z,98007.56
2023-11-26T23:28:55.277Z,97999.75
2023-11-26T23:33:58.326Z,97996.16
2023-11-26T23:39:04.536Z,97983.94
2023-11-26T23:44:08.471Z,97970.69
2023-11-26T23:49:11.597Z,97957.59
2023-11-26T23:54:16.906Z,97951.59
2023-11-26T23:59:19.795Z,97946.31
